ETHA

Altenstadt Army Airfield Airport

Altenstadt, Germany
TAF ETHA 230727Z 2308/2317 23007KT 9999 NSW SCT100 BKN250 BECMG 2308/2310 26010G20KT 9999 NSW FEW050 BKN120 BKN220 TEMPO 2311/2315 28015G25KT 9999 NSW SCT050 BKN100 BKN220 TEMPO 2315/2317 30015G30KT 4000 TSRA SCT015 BKN030CB BKN080
Issued Valid From Valid To
Apr-23 @ 07:27 UTC
(2 hours ago)
Apr-23 @ 08:00 UTC
(2 hours ago)
Apr-23 @ 17:00 UTC
(in 7 hours)
Apr-23 @ 08:00 to Apr-23 @ 17:00
TAF ETHA 230727Z 2308/2317 23007KT 9999 NSW SCT100 BKN250
Wind Visibility Clouds Conditions
230° at 7 knots 10,000+ meters
  • Scattered at 10,000' AGL
  • Broken at 25,000' AGL
Becoming Apr-23 @ 08:00 to Apr-23 @ 17:00
BECMG 2308/2310 26010G20KT 9999 NSW FEW050 BKN120 BKN220
Wind Visibility Clouds Conditions
260° at 10 knots
 Gusting to 20 knots
10,000+ meters
  • Few at 5,000' AGL
  • Broken at 12,000' AGL
  • Broken at 22,000' AGL
Temporary Apr-23 @ 11:00 to Apr-23 @ 15:00
TEMPO 2311/2315 28015G25KT 9999 NSW SCT050 BKN100 BKN220
Wind Visibility Clouds Conditions
280° at 15 knots
 Gusting to 25 knots
10,000+ meters
  • Scattered at 5,000' AGL
  • Broken at 10,000' AGL
  • Broken at 22,000' AGL
Temporary Apr-23 @ 15:00 to Apr-23 @ 17:00
TEMPO 2315/2317 30015G30KT 4000 TSRA SCT015 BKN030CB BKN080
Wind Visibility Clouds Conditions
300° at 15 knots
 Gusting to 30 knots
4,007 meters
  • Scattered at 1,500' AGL
  • Broken at 3,000' AGL
  • Broken at 8,000' AGL
  • Thunderstorm
  • Rain
TAF ETHA 230727Z 2308/2317 23007KT 9999 NSW SCT100 BKN250 BECMG 2308/2310 26010G20KT 9999 NSW FEW050 BKN120 BKN220 TEMPO 2311/2315 28015G25KT 9999 NSW SCT050 BKN100 BKN220 TEMPO 2315/2317 30015G30KT 4000 TSRA SCT015 BKN030CB BKN080
Issued Apr-23 @ 07:27 UTC
(2 hours ago)
Valid From Apr-23 @ 08:00 UTC
(2 hours ago)
Valid To Apr-23 @ 17:00 UTC
(in 7 hours)
Apr-23 @ 08:00 - Apr-23 @ 17:00
Wind Visibility
230° at 7 knots 10,000+ meters
Clouds
  • Scattered at 10,000' AGL
  • Broken at 25,000' AGL
Conditions
Becoming Apr-23 @ 08:00 - Apr-23 @ 17:00
Wind Visibility
260° at 10 knots
 Gusting to 20 knots
10,000+ meters
Clouds
  • Few at 5,000' AGL
  • Broken at 12,000' AGL
  • Broken at 22,000' AGL
Conditions
Temporary Apr-23 @ 11:00 - Apr-23 @ 15:00
Wind Visibility
280° at 15 knots
 Gusting to 25 knots
10,000+ meters
Clouds
  • Scattered at 5,000' AGL
  • Broken at 10,000' AGL
  • Broken at 22,000' AGL
Conditions
Temporary Apr-23 @ 15:00 - Apr-23 @ 17:00
Wind Visibility
300° at 15 knots
 Gusting to 30 knots
4,007 meters
Clouds
  • Scattered at 1,500' AGL
  • Broken at 3,000' AGL
  • Broken at 8,000' AGL
Conditions
  • Thunderstorm
  • Rain